sensor_id;sensor_type;location;lat;lon;timestamp;P1;durP1;ratioP1;P2;durP2;ratioP2
4420;SDS011;11824;51.178;13.546;2022-11-25T00:00:25;28.07;;;12.73;;
4420;SDS011;11824;51.178;13.546;2022-11-25T00:02:54;35.03;;;13.63;;
4420;SDS011;11824;51.178;13.546;2022-11-25T00:05:24;21.37;;;12.17;;
4420;SDS011;11824;51.178;13.546;2022-11-25T00:07:53;31.53;;;12.60;;
4420;SDS011;11824;51.178;13.546;2022-11-25T00:10:22;22.43;;;13.03;;
4420;SDS011;11824;51.178;13.546;2022-11-25T00:12:51;29.33;;;12.50;;
4420;SDS011;11824;51.178;13.546;2022-11-25T00:15:19;30.23;;;13.03;;
4420;SDS011;11824;51.178;13.546;2022-11-25T00:17:50;25.70;;;11.93;;
4420;SDS011;11824;51.178;13.546;2022-11-25T00:20:18;33.20;;;13.10;;
4420;SDS011;11824;51.178;13.546;2022-11-25T00:22:47;31.97;;;11.80;;
4420;SDS011;11824;51.178;13.546;2022-11-25T00:25:16;27.33;;;12.60;;
4420;SDS011;11824;51.178;13.546;2022-11-25T00:27:45;28.60;;;12.50;;
4420;SDS011;11824;51.178;13.546;2022-11-25T00:30:14;34.20;;;12.10;;
4420;SDS011;11824;51.178;13.546;2022-11-25T00:32:42;27.37;;;12.77;;
4420;SDS011;11824;51.178;13.546;2022-11-25T00:35:13;24.10;;;12.40;;
4420;SDS011;11824;51.178;13.546;2022-11-25T00:37:41;23.53;;;12.30;;
4420;SDS011;11824;51.178;13.546;2022-11-25T00:40:11;27.53;;;10.53;;
4420;SDS011;11824;51.178;13.546;2022-11-25T00:42:40;23.50;;;11.93;;
4420;SDS011;11824;51.178;13.546;2022-11-25T00:45:26;23.93;;;11.07;;
4420;SDS011;11824;51.178;13.546;2022-11-25T00:47:54;27.43;;;11.60;;
4420;SDS011;11824;51.178;13.546;2022-11-25T00:50:25;32.30;;;11.33;;
4420;SDS011;11824;51.178;13.546;2022-11-25T00:52:53;28.43;;;11.50;;
4420;SDS011;11824;51.178;13.546;2022-11-25T00:55:22;35.33;;;12.07;;
4420;SDS011;11824;51.178;13.546;2022-11-25T00:58:11;36.30;;;12.00;;
4420;SDS011;11824;51.178;13.546;2022-11-25T01:00:39;30.90;;;11.67;;
4420;SDS011;11824;51.178;13.546;2022-11-25T01:03:09;34.67;;;10.60;;
4420;SDS011;11824;51.178;13.546;2022-11-25T01:05:39;26.97;;;11.00;;
4420;SDS011;11824;51.178;13.546;2022-11-25T01:08:08;20.77;;;10.17;;
4420;SDS011;11824;51.178;13.546;2022-11-25T01:10:37;23.33;;;10.00;;
4420;SDS011;11824;51.178;13.546;2022-11-25T01:13:06;24.90;;;10.50;;
4420;SDS011;11824;51.178;13.546;2022-11-25T01:15:35;24.27;;;11.80;;
4420;SDS011;11824;51.178;13.546;2022-11-25T01:18:04;20.17;;;10.13;;
4420;SDS011;11824;51.178;13.546;2022-11-25T01:20:33;22.37;;;10.73;;
4420;SDS011;11824;51.178;13.546;2022-11-25T01:23:03;21.10;;;10.37;;
4420;SDS011;11824;51.178;13.546;2022-11-25T01:25:35;18.63;;;10.00;;
4420;SDS011;11824;51.178;13.546;2022-11-25T01:28:03;22.50;;;9.63;;
4420;SDS011;11824;51.178;13.546;2022-11-25T01:30:32;19.90;;;10.47;;
4420;SDS011;11824;51.178;13.546;2022-11-25T01:33:06;26.33;;;9.37;;
4420;SDS011;11824;51.178;13.546;2022-11-25T01:35:35;16.70;;;8.67;;
4420;SDS011;11824;51.178;13.546;2022-11-25T01:38:05;26.67;;;9.80;;
4420;SDS011;11824;51.178;13.546;2022-11-25T01:40:34;48.73;;;17.73;;
4420;SDS011;11824;51.178;13.546;2022-11-25T01:43:03;22.77;;;11.87;;
4420;SDS011;11824;51.178;13.546;2022-11-25T01:45:37;36.00;;;12.37;;
4420;SDS011;11824;51.178;13.546;2022-11-25T01:48:09;23.10;;;11.70;;
4420;SDS011;11824;51.178;13.546;2022-11-25T01:50:42;27.43;;;10.20;;
4420;SDS011;11824;51.178;13.546;2022-11-25T01:53:15;23.53;;;10.30;;
4420;SDS011;11824;51.178;13.546;2022-11-25T01:55:48;19.73;;;10.10;;
4420;SDS011;11824;51.178;13.546;2022-11-25T01:58:20;18.10;;;9.60;;
4420;SDS011;11824;51.178;13.546;2022-11-25T02:00:52;18.00;;;9.50;;
4420;SDS011;11824;51.178;13.546;2022-11-25T02:03:22;16.10;;;9.00;;
4420;SDS011;11824;51.178;13.546;2022-11-25T02:05:57;23.53;;;8.97;;
4420;SDS011;11824;51.178;13.546;2022-11-25T02:08:32;16.77;;;8.30;;
4420;SDS011;11824;51.178;13.546;2022-11-25T02:11:01;22.77;;;8.70;;
4420;SDS011;11824;51.178;13.546;2022-11-25T02:13:31;17.53;;;9.10;;
4420;SDS011;11824;51.178;13.546;2022-11-25T02:16:00;22.73;;;9.33;;
4420;SDS011;11824;51.178;13.546;2022-11-25T02:18:29;15.27;;;8.80;;
4420;SDS011;11824;51.178;13.546;2022-11-25T02:20:58;16.70;;;8.23;;
4420;SDS011;11824;51.178;13.546;2022-11-25T02:23:28;14.73;;;8.07;;
4420;SDS011;11824;51.178;13.546;2022-11-25T02:26:06;11.83;;;8.40;;
4420;SDS011;11824;51.178;13.546;2022-11-25T02:28:35;22.93;;;9.27;;
4420;SDS011;11824;51.178;13.546;2022-11-25T02:31:05;21.33;;;8.77;;
4420;SDS011;11824;51.178;13.546;2022-11-25T02:33:34;17.87;;;9.93;;
4420;SDS011;11824;51.178;13.546;2022-11-25T02:36:04;25.50;;;10.63;;
4420;SDS011;11824;51.178;13.546;2022-11-25T02:38:38;15.43;;;8.77;;
4420;SDS011;11824;51.178;13.546;2022-11-25T02:41:11;21.27;;;10.13;;
4420;SDS011;11824;51.178;13.546;2022-11-25T02:43:43;19.50;;;10.17;;
4420;SDS011;11824;51.178;13.546;2022-11-25T02:46:12;21.03;;;9.77;;
4420;SDS011;11824;51.178;13.546;2022-11-25T02:48:47;22.20;;;9.43;;
4420;SDS011;11824;51.178;13.546;2022-11-25T02:51:34;23.67;;;8.87;;
4420;SDS011;11824;51.178;13.546;2022-11-25T02:54:04;21.10;;;9.60;;
4420;SDS011;11824;51.178;13.546;2022-11-25T02:56:35;23.90;;;9.47;;
4420;SDS011;11824;51.178;13.546;2022-11-25T02:59:06;14.40;;;7.77;;
4420;SDS011;11824;51.178;13.546;2022-11-25T03:01:35;15.90;;;8.03;;
4420;SDS011;11824;51.178;13.546;2022-11-25T03:04:04;13.10;;;6.67;;
4420;SDS011;11824;51.178;13.546;2022-11-25T03:06:33;17.10;;;8.30;;
4420;SDS011;11824;51.178;13.546;2022-11-25T03:09:02;9.67;;;7.00;;
4420;SDS011;11824;51.178;13.546;2022-11-25T03:11:31;20.73;;;8.13;;
4420;SDS011;11824;51.178;13.546;2022-11-25T03:14:19;14.83;;;7.93;;
4420;SDS011;11824;51.178;13.546;2022-11-25T03:16:47;14.67;;;7.87;;
4420;SDS011;11824;51.178;13.546;2022-11-25T03:19:16;17.27;;;7.73;;
4420;SDS011;11824;51.178;13.546;2022-11-25T03:21:45;13.63;;;7.20;;
4420;SDS011;11824;51.178;13.546;2022-11-25T03:24:14;19.07;;;7.90;;
4420;SDS011;11824;51.178;13.546;2022-11-25T03:26:42;21.43;;;7.47;;
4420;SDS011;11824;51.178;13.546;2022-11-25T03:29:11;16.97;;;7.90;;
4420;SDS011;11824;51.178;13.546;2022-11-25T03:31:41;18.87;;;8.80;;
4420;SDS011;11824;51.178;13.546;2022-11-25T03:34:10;12.50;;;6.70;;
4420;SDS011;11824;51.178;13.546;2022-11-25T03:36:39;14.67;;;7.17;;
4420;SDS011;11824;51.178;13.546;2022-11-25T03:39:08;15.77;;;6.90;;
4420;SDS011;11824;51.178;13.546;2022-11-25T03:41:36;23.17;;;8.40;;
4420;SDS011;11824;51.178;13.546;2022-11-25T03:44:05;14.53;;;7.73;;
4420;SDS011;11824;51.178;13.546;2022-11-25T03:46:34;15.43;;;7.40;;
4420;SDS011;11824;51.178;13.546;2022-11-25T03:49:04;10.33;;;6.90;;
4420;SDS011;11824;51.178;13.546;2022-11-25T03:51:33;21.73;;;7.07;;
4420;SDS011;11824;51.178;13.546;2022-11-25T03:54:02;19.47;;;7.93;;
4420;SDS011;11824;51.178;13.546;2022-11-25T03:56:31;19.63;;;8.50;;
4420;SDS011;11824;51.178;13.546;2022-11-25T03:58:59;18.80;;;8.23;;
4420;SDS011;11824;51.178;13.546;2022-11-25T04:01:28;11.30;;;6.50;;
4420;SDS011;11824;51.178;13.546;2022-11-25T04:03:57;14.07;;;7.30;;
4420;SDS011;11824;51.178;13.546;2022-11-25T04:06:27;13.37;;;6.97;;
4420;SDS011;11824;51.178;13.546;2022-11-25T04:08:57;14.50;;;7.17;;
4420;SDS011;11824;51.178;13.546;2022-11-25T04:11:26;19.40;;;8.10;;
4420;SDS011;11824;51.178;13.546;2022-11-25T04:14:08;19.23;;;8.67;;
4420;SDS011;11824;51.178;13.546;2022-11-25T04:16:37;16.60;;;6.60;;
4420;SDS011;11824;51.178;13.546;2022-11-25T04:19:06;26.03;;;7.27;;
4420;SDS011;11824;51.178;13.546;2022-11-25T04:21:36;17.63;;;6.80;;
4420;SDS011;11824;51.178;13.546;2022-11-25T04:24:05;17.37;;;7.20;;
4420;SDS011;11824;51.178;13.546;2022-11-25T04:26:34;14.80;;;6.60;;
4420;SDS011;11824;51.178;13.546;2022-11-25T04:29:03;22.27;;;6.80;;
4420;SDS011;11824;51.178;13.546;2022-11-25T04:31:32;21.03;;;7.87;;
4420;SDS011;11824;51.178;13.546;2022-11-25T04:34:05;17.63;;;7.53;;
4420;SDS011;11824;51.178;13.546;2022-11-25T04:36:41;18.60;;;7.30;;
4420;SDS011;11824;51.178;13.546;2022-11-25T04:39:11;18.53;;;7.40;;
4420;SDS011;11824;51.178;13.546;2022-11-25T04:41:42;31.67;;;7.63;;
4420;SDS011;11824;51.178;13.546;2022-11-25T04:44:13;21.80;;;8.20;;
4420;SDS011;11824;51.178;13.546;2022-11-25T04:46:52;24.73;;;7.80;;
4420;SDS011;11824;51.178;13.546;2022-11-25T04:49:35;21.60;;;8.20;;
4420;SDS011;11824;51.178;13.546;2022-11-25T04:52:07;13.13;;;7.37;;
4420;SDS011;11824;51.178;13.546;2022-11-25T04:54:39;16.30;;;8.20;;
4420;SDS011;11824;51.178;13.546;2022-11-25T04:57:11;16.00;;;8.03;;
4420;SDS011;11824;51.178;13.546;2022-11-25T04:59:45;12.80;;;7.70;;
4420;SDS011;11824;51.178;13.546;2022-11-25T05:02:15;32.27;;;8.90;;
4420;SDS011;11824;51.178;13.546;2022-11-25T05:04:48;27.30;;;9.60;;
4420;SDS011;11824;51.178;13.546;2022-11-25T05:07:22;29.87;;;14.30;;
4420;SDS011;11824;51.178;13.546;2022-11-25T05:09:54;19.03;;;8.43;;
4420;SDS011;11824;51.178;13.546;2022-11-25T05:12:25;27.57;;;9.20;;
4420;SDS011;11824;51.178;13.546;2022-11-25T05:14:56;15.50;;;6.57;;
4420;SDS011;11824;51.178;13.546;2022-11-25T05:17:27;15.70;;;7.47;;
4420;SDS011;11824;51.178;13.546;2022-11-25T05:19:58;15.57;;;9.10;;
4420;SDS011;11824;51.178;13.546;2022-11-25T05:22:36;18.90;;;8.07;;
4420;SDS011;11824;51.178;13.546;2022-11-25T05:25:08;17.00;;;8.10;;
4420;SDS011;11824;51.178;13.546;2022-11-25T05:27:50;18.23;;;6.53;;
4420;SDS011;11824;51.178;13.546;2022-11-25T05:30:21;18.03;;;6.13;;
4420;SDS011;11824;51.178;13.546;2022-11-25T05:32:51;17.20;;;8.17;;
4420;SDS011;11824;51.178;13.546;2022-11-25T05:35:20;18.43;;;6.60;;
4420;SDS011;11824;51.178;13.546;2022-11-25T05:37:52;18.20;;;8.00;;
4420;SDS011;11824;51.178;13.546;2022-11-25T05:40:22;17.80;;;7.47;;
4420;SDS011;11824;51.178;13.546;2022-11-25T05:42:54;14.87;;;7.97;;
4420;SDS011;11824;51.178;13.546;2022-11-25T05:45:23;23.47;;;7.77;;
4420;SDS011;11824;51.178;13.546;2022-11-25T05:47:53;17.77;;;6.77;;
4420;SDS011;11824;51.178;13.546;2022-11-25T05:50:23;15.80;;;7.23;;
4420;SDS011;11824;51.178;13.546;2022-11-25T05:52:54;17.00;;;7.93;;
4420;SDS011;11824;51.178;13.546;2022-11-25T05:55:23;24.00;;;6.30;;
4420;SDS011;11824;51.178;13.546;2022-11-25T05:57:54;23.63;;;7.60;;
4420;SDS011;11824;51.178;13.546;2022-11-25T06:00:26;17.90;;;7.67;;
4420;SDS011;11824;51.178;13.546;2022-11-25T06:02:56;25.10;;;8.07;;
4420;SDS011;11824;51.178;13.546;2022-11-25T06:05:25;17.53;;;8.70;;
4420;SDS011;11824;51.178;13.546;2022-11-25T06:07:55;21.23;;;9.17;;
4420;SDS011;11824;51.178;13.546;2022-11-25T06:10:25;11.97;;;6.53;;
4420;SDS011;11824;51.178;13.546;2022-11-25T06:12:54;26.10;;;7.10;;
4420;SDS011;11824;51.178;13.546;2022-11-25T06:15:23;12.63;;;6.17;;
4420;SDS011;11824;51.178;13.546;2022-11-25T06:17:52;11.90;;;6.77;;
4420;SDS011;11824;51.178;13.546;2022-11-25T06:20:22;23.07;;;6.07;;
4420;SDS011;11824;51.178;13.546;2022-11-25T06:22:52;12.20;;;5.80;;
4420;SDS011;11824;51.178;13.546;2022-11-25T06:25:23;14.47;;;6.20;;
4420;SDS011;11824;51.178;13.546;2022-11-25T06:27:52;12.63;;;5.40;;
4420;SDS011;11824;51.178;13.546;2022-11-25T06:30:38;16.63;;;7.07;;
4420;SDS011;11824;51.178;13.546;2022-11-25T06:37:32;22.37;;;9.27;;
4420;SDS011;11824;51.178;13.546;2022-11-25T06:40:39;21.57;;;10.53;;
4420;SDS011;11824;51.178;13.546;2022-11-25T06:43:08;18.70;;;6.90;;
4420;SDS011;11824;51.178;13.546;2022-11-25T06:45:36;15.00;;;7.87;;
4420;SDS011;11824;51.178;13.546;2022-11-25T06:48:05;12.63;;;6.33;;
4420;SDS011;11824;51.178;13.546;2022-11-25T06:50:34;22.70;;;6.23;;
4420;SDS011;11824;51.178;13.546;2022-11-25T06:53:02;21.50;;;7.60;;
4420;SDS011;11824;51.178;13.546;2022-11-25T06:55:31;11.40;;;6.67;;
4420;SDS011;11824;51.178;13.546;2022-11-25T06:58:01;12.90;;;7.00;;
4420;SDS011;11824;51.178;13.546;2022-11-25T07:00:50;18.03;;;6.10;;
4420;SDS011;11824;51.178;13.546;2022-11-25T07:03:18;18.70;;;7.57;;
4420;SDS011;11824;51.178;13.546;2022-11-25T07:05:48;20.07;;;6.40;;
4420;SDS011;11824;51.178;13.546;2022-11-25T07:08:16;18.60;;;6.87;;
4420;SDS011;11824;51.178;13.546;2022-11-25T07:10:47;15.73;;;6.23;;
4420;SDS011;11824;51.178;13.546;2022-11-25T07:13:18;20.77;;;7.37;;
4420;SDS011;11824;51.178;13.546;2022-11-25T07:15:47;13.80;;;8.20;;
4420;SDS011;11824;51.178;13.546;2022-11-25T07:18:15;24.63;;;12.17;;
4420;SDS011;11824;51.178;13.546;2022-11-25T07:20:44;16.40;;;7.77;;
4420;SDS011;11824;51.178;13.546;2022-11-25T07:23:13;25.67;;;10.57;;
4420;SDS011;11824;51.178;13.546;2022-11-25T07:25:42;48.23;;;18.50;;
4420;SDS011;11824;51.178;13.546;2022-11-25T07:28:10;48.87;;;18.00;;
4420;SDS011;11824;51.178;13.546;2022-11-25T07:30:41;40.40;;;19.20;;
4420;SDS011;11824;51.178;13.546;2022-11-25T07:33:29;58.57;;;18.77;;
4420;SDS011;11824;51.178;13.546;2022-11-25T07:36:00;37.53;;;16.93;;
4420;SDS011;11824;51.178;13.546;2022-11-25T07:38:30;36.00;;;17.33;;
4420;SDS011;11824;51.178;13.546;2022-11-25T07:41:03;60.77;;;24.07;;
4420;SDS011;11824;51.178;13.546;2022-11-25T07:43:32;56.77;;;24.93;;
4420;SDS011;11824;51.178;13.546;2022-11-25T07:46:10;46.17;;;26.10;;
4420;SDS011;11824;51.178;13.546;2022-11-25T07:48:42;55.77;;;25.13;;
4420;SDS011;11824;51.178;13.546;2022-11-25T07:51:13;58.63;;;21.07;;
4420;SDS011;11824;51.178;13.546;2022-11-25T07:53:42;53.53;;;21.43;;
4420;SDS011;11824;51.178;13.546;2022-11-25T07:56:11;50.17;;;19.33;;
4420;SDS011;11824;51.178;13.546;2022-11-25T07:58:41;40.13;;;20.43;;
4420;SDS011;11824;51.178;13.546;2022-11-25T08:01:13;36.40;;;18.10;;
4420;SDS011;11824;51.178;13.546;2022-11-25T08:03:44;46.13;;;16.87;;
4420;SDS011;11824;51.178;13.546;2022-11-25T08:06:14;40.90;;;18.30;;
4420;SDS011;11824;51.178;13.546;2022-11-25T08:08:45;43.57;;;18.27;;
4420;SDS011;11824;51.178;13.546;2022-11-25T08:11:16;47.93;;;19.60;;
4420;SDS011;11824;51.178;13.546;2022-11-25T08:13:46;42.30;;;19.17;;
4420;SDS011;11824;51.178;13.546;2022-11-25T08:16:17;40.87;;;17.50;;
4420;SDS011;11824;51.178;13.546;2022-11-25T08:18:47;42.20;;;17.47;;
4420;SDS011;11824;51.178;13.546;2022-11-25T08:21:16;38.80;;;17.07;;
4420;SDS011;11824;51.178;13.546;2022-11-25T08:23:46;44.13;;;19.17;;
4420;SDS011;11824;51.178;13.546;2022-11-25T08:26:16;40.97;;;18.70;;
4420;SDS011;11824;51.178;13.546;2022-11-25T08:28:47;40.10;;;19.40;;
4420;SDS011;11824;51.178;13.546;2022-11-25T08:31:17;45.60;;;19.77;;
4420;SDS011;11824;51.178;13.546;2022-11-25T08:33:48;45.73;;;19.87;;
4420;SDS011;11824;51.178;13.546;2022-11-25T08:36:17;46.70;;;19.73;;
4420;SDS011;11824;51.178;13.546;2022-11-25T08:38:47;36.80;;;17.30;;
4420;SDS011;11824;51.178;13.546;2022-11-25T08:41:18;39.70;;;17.43;;
4420;SDS011;11824;51.178;13.546;2022-11-25T08:43:49;51.53;;;19.00;;
4420;SDS011;11824;51.178;13.546;2022-11-25T08:46:20;43.70;;;18.10;;
4420;SDS011;11824;51.178;13.546;2022-11-25T08:48:50;40.90;;;17.63;;
4420;SDS011;11824;51.178;13.546;2022-11-25T08:51:21;46.87;;;17.70;;
4420;SDS011;11824;51.178;13.546;2022-11-25T08:53:51;45.00;;;19.70;;
4420;SDS011;11824;51.178;13.546;2022-11-25T08:56:20;48.60;;;20.10;;
4420;SDS011;11824;51.178;13.546;2022-11-25T08:58:51;36.67;;;16.30;;
4420;SDS011;11824;51.178;13.546;2022-11-25T09:01:22;36.47;;;15.47;;
4420;SDS011;11824;51.178;13.546;2022-11-25T09:03:54;34.60;;;16.70;;
4420;SDS011;11824;51.178;13.546;2022-11-25T09:06:24;36.03;;;17.13;;
4420;SDS011;11824;51.178;13.546;2022-11-25T09:08:53;30.77;;;16.10;;
4420;SDS011;11824;51.178;13.546;2022-11-25T09:11:23;44.33;;;16.80;;
4420;SDS011;11824;51.178;13.546;2022-11-25T09:13:52;31.80;;;14.80;;
4420;SDS011;11824;51.178;13.546;2022-11-25T09:16:22;46.13;;;16.10;;
4420;SDS011;11824;51.178;13.546;2022-11-25T09:18:52;43.43;;;15.13;;
4420;SDS011;11824;51.178;13.546;2022-11-25T09:21:21;35.73;;;14.47;;
4420;SDS011;11824;51.178;13.546;2022-11-25T09:23:51;33.67;;;16.10;;
4420;SDS011;11824;51.178;13.546;2022-11-25T09:26:21;30.40;;;14.90;;
4420;SDS011;11824;51.178;13.546;2022-11-25T09:28:52;30.83;;;13.77;;
4420;SDS011;11824;51.178;13.546;2022-11-25T09:31:23;28.40;;;15.97;;
4420;SDS011;11824;51.178;13.546;2022-11-25T09:33:52;26.70;;;14.73;;
4420;SDS011;11824;51.178;13.546;2022-11-25T09:36:25;34.77;;;15.43;;
4420;SDS011;11824;51.178;13.546;2022-11-25T09:38:57;28.17;;;15.07;;
4420;SDS011;11824;51.178;13.546;2022-11-25T09:41:39;29.73;;;13.80;;
4420;SDS011;11824;51.178;13.546;2022-11-25T09:44:41;30.57;;;16.10;;
4420;SDS011;11824;51.178;13.546;2022-11-25T09:47:40;37.80;;;15.73;;
4420;SDS011;11824;51.178;13.546;2022-11-25T09:50:26;31.33;;;13.93;;
4420;SDS011;11824;51.178;13.546;2022-11-25T09:53:10;27.07;;;15.60;;
4420;SDS011;11824;51.178;13.546;2022-11-25T09:55:57;30.80;;;13.57;;
4420;SDS011;11824;51.178;13.546;2022-11-25T09:58:43;32.10;;;16.27;;
4420;SDS011;11824;51.178;13.546;2022-11-25T10:01:43;32.47;;;14.17;;
4420;SDS011;11824;51.178;13.546;2022-11-25T10:04:37;27.67;;;13.63;;
4420;SDS011;11824;51.178;13.546;2022-11-25T10:07:20;39.63;;;15.70;;
4420;SDS011;11824;51.178;13.546;2022-11-25T10:10:16;23.10;;;13.27;;
4420;SDS011;11824;51.178;13.546;2022-11-25T10:12:58;24.73;;;13.87;;
4420;SDS011;11824;51.178;13.546;2022-11-25T10:16:24;24.50;;;12.50;;
4420;SDS011;11824;51.178;13.546;2022-11-25T10:19:20;23.87;;;13.40;;
4420;SDS011;11824;51.178;13.546;2022-11-25T10:22:11;27.10;;;12.00;;
4420;SDS011;11824;51.178;13.546;2022-11-25T10:25:05;16.90;;;10.00;;
4420;SDS011;11824;51.178;13.546;2022-11-25T10:28:04;27.63;;;10.03;;
4420;SDS011;11824;51.178;13.546;2022-11-25T10:30:58;23.87;;;10.43;;
4420;SDS011;11824;51.178;13.546;2022-11-25T10:33:37;29.93;;;10.40;;
4420;SDS011;11824;51.178;13.546;2022-11-25T10:36:13;15.67;;;9.33;;
4420;SDS011;11824;51.178;13.546;2022-11-25T10:38:53;15.17;;;8.00;;
4420;SDS011;11824;51.178;13.546;2022-11-25T10:41:28;21.37;;;7.77;;
4420;SDS011;11824;51.178;13.546;2022-11-25T10:44:28;21.00;;;7.90;;
4420;SDS011;11824;51.178;13.546;2022-11-25T10:47:14;18.40;;;7.87;;
4420;SDS011;11824;51.178;13.546;2022-11-25T10:50:10;13.73;;;6.97;;
4420;SDS011;11824;51.178;13.546;2022-11-25T10:53:00;17.07;;;8.80;;
4420;SDS011;11824;51.178;13.546;2022-11-25T10:55:54;17.87;;;8.13;;
4420;SDS011;11824;51.178;13.546;2022-11-25T10:58:40;21.77;;;7.40;;
4420;SDS011;11824;51.178;13.546;2022-11-25T11:01:21;17.53;;;7.23;;
4420;SDS011;11824;51.178;13.546;2022-11-25T11:04:01;21.10;;;6.47;;
4420;SDS011;11824;51.178;13.546;2022-11-25T11:06:50;12.40;;;6.60;;
4420;SDS011;11824;51.178;13.546;2022-11-25T11:09:37;15.13;;;5.93;;
4420;SDS011;11824;51.178;13.546;2022-11-25T11:12:27;17.43;;;6.80;;
4420;SDS011;11824;51.178;13.546;2022-11-25T11:15:13;14.10;;;6.43;;
4420;SDS011;11824;51.178;13.546;2022-11-25T11:17:52;16.80;;;7.37;;
4420;SDS011;11824;51.178;13.546;2022-11-25T11:20:24;13.93;;;6.40;;
4420;SDS011;11824;51.178;13.546;2022-11-25T11:23:00;15.40;;;5.63;;
4420;SDS011;11824;51.178;13.546;2022-11-25T11:25:35;12.60;;;6.00;;
4420;SDS011;11824;51.178;13.546;2022-11-25T11:28:27;18.93;;;7.37;;
4420;SDS011;11824;51.178;13.546;2022-11-25T11:31:06;15.17;;;5.83;;
4420;SDS011;11824;51.178;13.546;2022-11-25T11:33:51;17.60;;;6.80;;
4420;SDS011;11824;51.178;13.546;2022-11-25T11:36:33;20.23;;;6.30;;
4420;SDS011;11824;51.178;13.546;2022-11-25T11:42:18;16.80;;;5.07;;
4420;SDS011;11824;51.178;13.546;2022-11-25T11:45:03;24.57;;;6.50;;
4420;SDS011;11824;51.178;13.546;2022-11-25T11:47:48;16.13;;;6.20;;
4420;SDS011;11824;51.178;13.546;2022-11-25T11:50:32;16.37;;;5.40;;
4420;SDS011;11824;51.178;13.546;2022-11-25T11:53:11;13.23;;;5.93;;
4420;SDS011;11824;51.178;13.546;2022-11-25T11:55:53;13.43;;;5.67;;
4420;SDS011;11824;51.178;13.546;2022-11-25T11:58:57;11.37;;;5.33;;
4420;SDS011;11824;51.178;13.546;2022-11-25T12:01:50;11.03;;;5.23;;
4420;SDS011;11824;51.178;13.546;2022-11-25T12:04:28;10.33;;;4.80;;
4420;SDS011;11824;51.178;13.546;2022-11-25T12:07:10;11.60;;;4.93;;
4420;SDS011;11824;51.178;13.546;2022-11-25T12:09:48;13.43;;;6.10;;
4420;SDS011;11824;51.178;13.546;2022-11-25T12:12:28;10.00;;;4.23;;
4420;SDS011;11824;51.178;13.546;2022-11-25T12:15:11;18.60;;;5.23;;
4420;SDS011;11824;51.178;13.546;2022-11-25T12:18:08;12.27;;;5.33;;
4420;SDS011;11824;51.178;13.546;2022-11-25T12:20:46;14.67;;;4.10;;
4420;SDS011;11824;51.178;13.546;2022-11-25T12:23:35;12.43;;;6.40;;
4420;SDS011;11824;51.178;13.546;2022-11-25T12:26:13;11.87;;;6.53;;
4420;SDS011;11824;51.178;13.546;2022-11-25T12:28:53;16.23;;;5.23;;
4420;SDS011;11824;51.178;13.546;2022-11-25T12:31:26;11.00;;;4.50;;
4420;SDS011;11824;51.178;13.546;2022-11-25T12:34:06;15.80;;;3.83;;
4420;SDS011;11824;51.178;13.546;2022-11-25T12:36:41;10.60;;;4.60;;
4420;SDS011;11824;51.178;13.546;2022-11-25T12:39:18;10.07;;;4.70;;
4420;SDS011;11824;51.178;13.546;2022-11-25T12:41:57;12.27;;;5.60;;
4420;SDS011;11824;51.178;13.546;2022-11-25T12:48:15;8.43;;;4.60;;
4420;SDS011;11824;51.178;13.546;2022-11-25T12:51:35;9.00;;;4.93;;
4420;SDS011;11824;51.178;13.546;2022-11-25T12:55:12;10.73;;;5.30;;
4420;SDS011;11824;51.178;13.546;2022-11-25T12:58:20;13.83;;;7.23;;
4420;SDS011;11824;51.178;13.546;2022-11-25T13:04:22;9.60;;;4.57;;
4420;SDS011;11824;51.178;13.546;2022-11-25T13:08:03;13.43;;;5.70;;
4420;SDS011;11824;51.178;13.546;2022-11-25T13:11:15;10.87;;;5.40;;
4420;SDS011;11824;51.178;13.546;2022-11-25T13:14:27;14.73;;;6.50;;
4420;SDS011;11824;51.178;13.546;2022-11-25T13:17:41;18.07;;;6.80;;
4420;SDS011;11824;51.178;13.546;2022-11-25T13:20:39;10.57;;;6.13;;
4420;SDS011;11824;51.178;13.546;2022-11-25T13:26:46;13.07;;;5.97;;
4420;SDS011;11824;51.178;13.546;2022-11-25T13:32:34;15.70;;;5.50;;
4420;SDS011;11824;51.178;13.546;2022-11-25T13:38:33;13.60;;;5.27;;
4420;SDS011;11824;51.178;13.546;2022-11-25T13:41:20;11.70;;;5.30;;
4420;SDS011;11824;51.178;13.546;2022-11-25T13:43:59;8.70;;;4.33;;
4420;SDS011;11824;51.178;13.546;2022-11-25T13:46:37;13.03;;;4.90;;
4420;SDS011;11824;51.178;13.546;2022-11-25T13:49:19;13.37;;;5.67;;
4420;SDS011;11824;51.178;13.546;2022-11-25T13:51:55;12.07;;;4.60;;
4420;SDS011;11824;51.178;13.546;2022-11-25T13:54:30;9.83;;;4.97;;
4420;SDS011;11824;51.178;13.546;2022-11-25T13:57:22;8.77;;;5.73;;
4420;SDS011;11824;51.178;13.546;2022-11-25T13:59:55;8.23;;;4.80;;
4420;SDS011;11824;51.178;13.546;2022-11-25T14:02:36;11.33;;;5.53;;
4420;SDS011;11824;51.178;13.546;2022-11-25T14:08:17;15.63;;;7.20;;
4420;SDS011;11824;51.178;13.546;2022-11-25T14:10:57;17.70;;;6.80;;
4420;SDS011;11824;51.178;13.546;2022-11-25T14:16:52;9.33;;;5.60;;
4420;SDS011;11824;51.178;13.546;2022-11-25T14:19:47;11.40;;;6.33;;
4420;SDS011;11824;51.178;13.546;2022-11-25T14:22:50;15.03;;;6.47;;
4420;SDS011;11824;51.178;13.546;2022-11-25T14:25:42;16.13;;;7.07;;
4420;SDS011;11824;51.178;13.546;2022-11-25T14:28:19;12.87;;;6.13;;
4420;SDS011;11824;51.178;13.546;2022-11-25T14:30:56;10.87;;;6.87;;
4420;SDS011;11824;51.178;13.546;2022-11-25T14:33:32;11.43;;;6.37;;
4420;SDS011;11824;51.178;13.546;2022-11-25T14:36:04;14.53;;;8.53;;
4420;SDS011;11824;51.178;13.546;2022-11-25T14:38:39;17.00;;;8.10;;
4420;SDS011;11824;51.178;13.546;2022-11-25T14:41:15;21.93;;;6.67;;
4420;SDS011;11824;51.178;13.546;2022-11-25T14:43:47;15.13;;;6.77;;
4420;SDS011;11824;51.178;13.546;2022-11-25T14:46:20;9.50;;;7.20;;
4420;SDS011;11824;51.178;13.546;2022-11-25T14:48:53;21.57;;;8.97;;
4420;SDS011;11824;51.178;13.546;2022-11-25T14:51:23;23.53;;;10.57;;
4420;SDS011;11824;51.178;13.546;2022-11-25T14:53:53;24.03;;;9.50;;
4420;SDS011;11824;51.178;13.546;2022-11-25T14:56:24;18.53;;;8.87;;
4420;SDS011;11824;51.178;13.546;2022-11-25T14:58:55;21.70;;;10.17;;
4420;SDS011;11824;51.178;13.546;2022-11-25T15:01:26;23.70;;;11.07;;
4420;SDS011;11824;51.178;13.546;2022-11-25T15:04:04;19.90;;;9.77;;
4420;SDS011;11824;51.178;13.546;2022-11-25T15:06:44;18.63;;;9.20;;
4420;SDS011;11824;51.178;13.546;2022-11-25T15:09:18;18.30;;;10.60;;
4420;SDS011;11824;51.178;13.546;2022-11-25T15:11:50;20.73;;;11.70;;
4420;SDS011;11824;51.178;13.546;2022-11-25T15:14:24;18.10;;;11.10;;
4420;SDS011;11824;51.178;13.546;2022-11-25T15:16:54;35.77;;;13.53;;
4420;SDS011;11824;51.178;13.546;2022-11-25T15:19:26;17.33;;;11.57;;
4420;SDS011;11824;51.178;13.546;2022-11-25T15:22:01;23.17;;;10.97;;
4420;SDS011;11824;51.178;13.546;2022-11-25T15:24:50;18.87;;;11.40;;
4420;SDS011;11824;51.178;13.546;2022-11-25T15:27:24;27.37;;;14.07;;
4420;SDS011;11824;51.178;13.546;2022-11-25T15:30:16;20.33;;;12.27;;
4420;SDS011;11824;51.178;13.546;2022-11-25T15:32:55;23.03;;;12.50;;
4420;SDS011;11824;51.178;13.546;2022-11-25T15:35:32;24.13;;;13.40;;
4420;SDS011;11824;51.178;13.546;2022-11-25T15:38:18;32.80;;;14.73;;
4420;SDS011;11824;51.178;13.546;2022-11-25T15:41:05;31.80;;;16.23;;
4420;SDS011;11824;51.178;13.546;2022-11-25T15:43:47;29.93;;;14.80;;
4420;SDS011;11824;51.178;13.546;2022-11-25T15:46:25;23.70;;;12.80;;
4420;SDS011;11824;51.178;13.546;2022-11-25T15:48:56;25.83;;;11.87;;